createdAt,value
2018-03-23T00:01:31.342Z,97.20
2018-03-23T00:04:04.841Z,97.20
2018-03-23T00:06:32.282Z,97.20
2018-03-23T00:08:59.754Z,97.20
2018-03-23T00:11:27.208Z,97.20
2018-03-23T00:13:54.667Z,97.20
2018-03-23T00:16:22.122Z,97.20
2018-03-23T00:18:49.886Z,97.20
2018-03-23T00:21:17.334Z,97.30
2018-03-23T00:23:45.469Z,97.20
2018-03-23T00:26:27.296Z,97.20
2018-03-23T00:28:54.766Z,97.20
2018-03-23T00:31:22.217Z,97.20
2018-03-23T00:33:49.684Z,97.30
2018-03-23T00:36:17.129Z,97.30
2018-03-23T00:38:44.580Z,97.30
2018-03-23T00:41:12.221Z,97.30
2018-03-23T00:43:40.434Z,97.30
2018-03-23T00:46:08.649Z,97.30
2018-03-23T00:48:36.124Z,97.30
2018-03-23T00:51:04.343Z,97.40
2018-03-23T00:53:33.712Z,97.40
2018-03-23T00:56:01.946Z,97.40
2018-03-23T00:58:29.485Z,97.40
2018-03-23T01:00:57.720Z,97.40
2018-03-23T01:03:25.937Z,97.40
2018-03-23T01:05:53.407Z,97.40
2018-03-23T01:08:35.900Z,97.40
2018-03-23T01:11:03.357Z,97.40
2018-03-23T01:13:30.928Z,97.40
2018-03-23T01:15:58.381Z,97.40
2018-03-23T01:18:25.866Z,97.40
2018-03-23T01:20:57.078Z,97.50
2018-03-23T01:23:24.572Z,97.60
2018-03-23T01:25:52.008Z,97.60
2018-03-23T01:28:19.448Z,97.60
2018-03-23T01:30:50.813Z,97.60
2018-03-23T01:33:18.282Z,97.60
2018-03-23T01:35:45.746Z,97.60
2018-03-23T01:38:13.201Z,97.60
2018-03-23T01:40:40.668Z,97.60
2018-03-23T01:43:08.121Z,97.60
2018-03-23T01:45:35.565Z,97.60
2018-03-23T01:48:03.157Z,97.60
2018-03-23T01:50:30.610Z,97.60
2018-03-23T01:52:58.070Z,97.70
2018-03-23T01:55:25.516Z,97.60
2018-03-23T01:57:52.984Z,97.50
2018-03-23T02:00:20.441Z,97.70
2018-03-23T02:02:47.904Z,97.70
2018-03-23T02:05:16.125Z,97.80
2018-03-23T02:07:43.911Z,97.70
2018-03-23T02:10:11.357Z,97.70
2018-03-23T02:12:38.809Z,97.80
2018-03-23T02:15:06.297Z,97.70
2018-03-23T02:17:33.754Z,97.70
2018-03-23T02:20:01.252Z,97.80
2018-03-23T02:22:29.645Z,97.80
2018-03-23T02:24:57.089Z,97.80
2018-03-23T02:27:25.326Z,97.80
2018-03-23T02:29:52.768Z,97.80
2018-03-23T02:32:20.278Z,97.80
2018-03-23T02:34:47.722Z,97.80
2018-03-23T02:37:16.024Z,97.90
2018-03-23T02:42:40.008Z,97.80
2018-03-23T02:45:13.674Z,97.80
2018-03-23T02:47:41.277Z,97.80
2018-03-23T02:50:08.729Z,97.90
2018-03-23T02:52:36.949Z,97.90
2018-03-23T02:55:04.424Z,97.90
2018-03-23T02:57:31.870Z,97.90
2018-03-23T02:59:59.330Z,98.00
2018-03-23T03:02:26.967Z,98.00
2018-03-23T03:04:54.410Z,97.90
2018-03-23T03:07:21.852Z,98.00
2018-03-23T03:09:50.160Z,98.00
2018-03-23T03:12:18.365Z,98.00
2018-03-23T03:14:45.832Z,98.00
2018-03-23T03:17:13.289Z,98.00
2018-03-23T03:19:41.133Z,98.00
2018-03-23T03:22:08.578Z,98.00
2018-03-23T03:24:36.026Z,98.00
2018-03-23T03:27:03.489Z,98.00
2018-03-23T03:29:30.945Z,98.00
2018-03-23T03:31:59.170Z,98.00
2018-03-23T03:34:30.812Z,98.00
2018-03-23T03:36:58.282Z,98.00
2018-03-23T03:39:25.876Z,98.00
2018-03-23T03:41:58.321Z,98.00
2018-03-23T03:44:25.801Z,98.00
2018-03-23T03:46:54.014Z,98.10
2018-03-23T03:49:21.755Z,98.10
2018-03-23T03:51:49.277Z,98.10
2018-03-23T03:54:16.724Z,98.10
2018-03-23T03:56:44.163Z,98.10
2018-03-23T03:59:11.704Z,98.10
2018-03-23T04:01:39.140Z,98.10
2018-03-23T04:04:06.576Z,98.10
2018-03-23T04:06:34.821Z,98.20
2018-03-23T04:09:02.257Z,98.20
2018-03-23T04:11:31.444Z,98.20
2018-03-23T04:13:59.048Z,98.20
2018-03-23T04:16:26.912Z,98.10
2018-03-23T04:18:54.369Z,98.10
2018-03-23T04:21:26.913Z,98.10
2018-03-23T04:24:03.309Z,98.10
2018-03-23T04:26:30.773Z,98.20
2018-03-23T04:28:58.260Z,98.10
2018-03-23T04:31:25.700Z,98.10
2018-03-23T04:33:53.150Z,98.20
2018-03-23T04:36:22.244Z,98.10
2018-03-23T04:38:49.693Z,98.20
2018-03-23T04:41:17.196Z,98.20
2018-03-23T04:43:44.640Z,98.10
2018-03-23T04:46:12.854Z,98.20
2018-03-23T04:48:40.321Z,98.10
2018-03-23T04:51:07.771Z,98.20
2018-03-23T04:53:36.575Z,98.20
2018-03-23T04:56:04.024Z,98.20
2018-03-23T04:58:31.472Z,98.20
2018-03-23T05:00:58.938Z,98.20
2018-03-23T05:03:26.408Z,98.30
2018-03-23T05:05:53.889Z,98.20
2018-03-23T05:08:21.508Z,98.30
2018-03-23T05:10:49.289Z,98.30
2018-03-23T05:13:16.740Z,98.40
2018-03-23T05:15:44.260Z,98.40
2018-03-23T05:18:12.552Z,98.40
2018-03-23T05:20:40.009Z,98.40
2018-03-23T05:23:07.640Z,98.40
2018-03-23T05:25:35.941Z,98.50
2018-03-23T05:28:04.140Z,98.50
2018-03-23T05:30:31.904Z,98.50
2018-03-23T05:33:00.527Z,98.50
2018-03-23T05:35:27.973Z,98.50
2018-03-23T05:37:55.836Z,98.50
2018-03-23T05:40:24.184Z,98.50
2018-03-23T05:42:51.645Z,98.50
2018-03-23T05:45:19.108Z,98.50
2018-03-23T05:47:46.573Z,98.50
2018-03-23T05:50:14.181Z,98.50
2018-03-23T05:52:42.393Z,98.60
2018-03-23T05:55:09.876Z,98.50
2018-03-23T05:57:37.325Z,98.50
2018-03-23T06:00:04.769Z,98.40
2018-03-23T06:02:32.374Z,98.40
2018-03-23T06:04:59.817Z,98.40
2018-03-23T06:07:27.265Z,98.40
2018-03-23T06:09:54.836Z,98.40
2018-03-23T06:12:22.280Z,98.40
2018-03-23T06:14:49.769Z,98.30
2018-03-23T06:17:17.219Z,98.30
2018-03-23T06:19:44.669Z,98.20
2018-03-23T06:22:12.192Z,98.20
2018-03-23T06:24:39.670Z,98.20
2018-03-23T06:27:07.113Z,98.10
2018-03-23T06:29:34.630Z,98.20
2018-03-23T06:32:02.852Z,98.10
2018-03-23T06:34:30.301Z,98.10
2018-03-23T06:36:57.768Z,98.10
2018-03-23T06:39:25.225Z,98.10
2018-03-23T06:41:52.783Z,98.10
2018-03-23T06:44:20.220Z,98.10
2018-03-23T06:46:47.693Z,98.10
2018-03-23T06:49:15.159Z,98.00
2018-03-23T06:51:42.608Z,98.00
2018-03-23T06:54:10.139Z,97.90
2018-03-23T06:56:37.624Z,97.90
2018-03-23T06:59:05.094Z,97.90
2018-03-23T07:01:32.628Z,97.90
2018-03-23T07:04:00.097Z,97.90
2018-03-23T07:06:27.553Z,97.90
2018-03-23T07:08:55.065Z,97.80
2018-03-23T07:11:22.499Z,97.80
2018-03-23T07:13:49.984Z,97.80
2018-03-23T07:16:18.203Z,97.70
2018-03-23T07:18:45.668Z,97.70
2018-03-23T07:21:13.153Z,97.60
2018-03-23T07:23:40.728Z,97.60
2018-03-23T07:26:08.161Z,97.70
2018-03-23T07:28:35.627Z,97.70
2018-03-23T07:31:03.071Z,97.70
2018-03-23T07:33:30.544Z,97.70
2018-03-23T07:35:58.004Z,97.70
2018-03-23T07:38:25.629Z,97.70
2018-03-23T07:40:53.066Z,97.70
2018-03-23T07:43:20.501Z,97.70
2018-03-23T07:45:48.917Z,97.70
2018-03-23T07:48:16.418Z,97.60
2018-03-23T07:50:43.861Z,97.60
2018-03-23T07:53:11.325Z,97.60
2018-03-23T07:55:38.776Z,97.50
2018-03-23T07:58:06.407Z,97.50
2018-03-23T08:00:33.840Z,97.50
2018-03-23T08:03:02.153Z,97.40
2018-03-23T08:05:29.588Z,97.40
2018-03-23T08:07:57.024Z,97.40
2018-03-23T08:10:25.376Z,97.30
2018-03-23T08:12:52.837Z,97.30
2018-03-23T08:15:20.283Z,97.30
2018-03-23T08:17:47.769Z,97.30
2018-03-23T08:20:15.252Z,97.40
2018-03-23T08:22:42.717Z,97.40
2018-03-23T08:25:10.336Z,97.50
2018-03-23T08:27:37.777Z,97.50
2018-03-23T08:30:05.240Z,97.50
2018-03-23T08:32:32.704Z,97.50
2018-03-23T08:35:00.185Z,97.40
2018-03-23T08:37:31.572Z,97.40
2018-03-23T08:40:00.493Z,97.50
2018-03-23T08:42:27.953Z,97.50
2018-03-23T08:44:55.423Z,97.50
2018-03-23T08:47:22.869Z,97.40
2018-03-23T08:49:50.336Z,97.30
2018-03-23T08:52:17.796Z,97.20
2018-03-23T08:54:45.236Z,97.10
2018-03-23T08:57:12.766Z,97.00
2018-03-23T08:59:40.717Z,97.00
2018-03-23T09:02:08.171Z,96.90
2018-03-23T09:04:36.404Z,96.80
2018-03-23T09:07:03.876Z,96.80
2018-03-23T09:09:31.439Z,96.80
2018-03-23T09:11:58.872Z,96.60
2018-03-23T09:14:26.315Z,96.60
2018-03-23T09:16:53.780Z,96.50
2018-03-23T09:19:21.235Z,96.40
2018-03-23T09:21:48.735Z,96.20
2018-03-23T09:24:16.154Z,96.10
2018-03-23T09:26:43.806Z,96.10
2018-03-23T09:29:13.132Z,96.00
2018-03-23T09:31:40.598Z,95.90
2018-03-23T09:34:08.076Z,95.90
2018-03-23T09:36:35.524Z,95.90
2018-03-23T09:39:02.977Z,95.70
2018-03-23T09:41:30.648Z,95.60
2018-03-23T09:43:58.123Z,95.50
2018-03-23T09:46:26.346Z,95.50
2018-03-23T09:48:53.816Z,95.50
2018-03-23T09:51:21.298Z,95.40
2018-03-23T09:53:48.775Z,95.30
2018-03-23T09:56:16.223Z,95.30
2018-03-23T09:58:43.672Z,95.30
2018-03-23T10:01:12.742Z,95.10
2018-03-23T10:03:40.243Z,95.10
2018-03-23T10:06:07.738Z,95.00
2018-03-23T10:08:35.185Z,94.90
2018-03-23T10:11:02.646Z,94.90
2018-03-23T10:13:30.108Z,94.80
2018-03-23T10:15:57.548Z,94.70
2018-03-23T10:18:25.140Z,94.70
2018-03-23T10:20:52.707Z,94.70
2018-03-23T10:23:20.189Z,94.70
2018-03-23T10:25:48.384Z,94.40
2018-03-23T10:28:15.826Z,94.70
2018-03-23T10:30:44.064Z,94.80
2018-03-23T10:33:11.504Z,94.70
2018-03-23T10:35:38.957Z,94.80
2018-03-23T10:38:06.552Z,95.00
2018-03-23T10:40:33.996Z,94.70
2018-03-23T10:43:01.456Z,94.70
2018-03-23T10:45:28.920Z,94.50
2018-03-23T10:47:56.397Z,94.40
2018-03-23T10:50:23.836Z,94.30
2018-03-23T10:52:51.335Z,94.00
2018-03-23T10:55:19.542Z,94.00
2018-03-23T10:57:47.537Z,94.30
2018-03-23T11:00:14.989Z,93.90
2018-03-23T11:02:48.205Z,93.90
2018-03-23T11:05:15.664Z,93.80
2018-03-23T11:07:43.129Z,93.70
2018-03-23T11:10:11.353Z,93.70
2018-03-23T11:12:38.828Z,93.60
2018-03-23T11:15:06.282Z,93.50
2018-03-23T11:17:33.904Z,93.60
2018-03-23T11:20:01.560Z,93.40
2018-03-23T11:22:29.011Z,93.40
2018-03-23T11:24:56.472Z,93.40
2018-03-23T11:27:23.909Z,93.40
2018-03-23T11:29:51.448Z,93.20
2018-03-23T11:32:18.901Z,92.80
2018-03-23T11:34:46.352Z,92.90
2018-03-23T11:37:16.481Z,92.80
2018-03-23T11:51:06.156Z,92.60
2018-03-23T11:53:33.691Z,92.40
2018-03-23T11:56:01.139Z,92.40
2018-03-23T11:58:32.812Z,92.20
2018-03-23T12:01:00.248Z,92.20
2018-03-23T12:03:27.698Z,92.10
2018-03-23T12:05:55.218Z,92.10
2018-03-23T12:08:23.429Z,92.10
2018-03-23T12:10:50.889Z,92.10
2018-03-23T12:13:18.488Z,92.10
2018-03-23T12:15:45.932Z,92.10
2018-03-23T12:18:13.397Z,92.00
2018-03-23T12:20:41.090Z,92.00
2018-03-23T12:23:09.352Z,92.00
2018-03-23T12:25:36.809Z,91.90
2018-03-23T12:28:04.320Z,91.90
2018-03-23T12:30:31.779Z,91.80
2018-03-23T12:32:59.298Z,91.70
2018-03-23T12:35:27.526Z,91.70
2018-03-23T12:37:55.176Z,91.90
2018-03-23T12:40:22.612Z,91.50
2018-03-23T12:42:50.225Z,91.30
2018-03-23T12:45:17.667Z,91.30
2018-03-23T12:47:45.885Z,91.20
2018-03-23T12:50:13.372Z,91.10
2018-03-23T12:52:40.871Z,90.90
2018-03-23T12:55:08.309Z,91.20
2018-03-23T12:57:36.674Z,91.00
2018-03-23T13:00:04.235Z,91.10
2018-03-23T13:02:31.737Z,91.10
2018-03-23T13:04:59.173Z,91.10
2018-03-23T13:07:26.640Z,91.10
2018-03-23T13:09:54.077Z,91.20
2018-03-23T13:12:21.543Z,91.20
2018-03-23T13:14:48.997Z,91.10
2018-03-23T13:17:16.634Z,91.00
2018-03-23T13:19:44.065Z,91.10
2018-03-23T13:22:12.352Z,91.10
2018-03-23T13:24:39.818Z,91.10
2018-03-23T13:27:07.252Z,91.10
2018-03-23T13:29:36.371Z,91.00
2018-03-23T13:32:03.809Z,91.00
2018-03-23T13:34:32.175Z,90.90
2018-03-23T13:37:02.401Z,90.90
2018-03-23T13:39:30.672Z,90.70
2018-03-23T13:42:00.029Z,90.60
2018-03-23T13:44:27.499Z,90.60
2018-03-23T13:46:54.936Z,90.60
2018-03-23T13:49:22.460Z,90.60
2018-03-23T13:51:49.949Z,90.60
2018-03-23T13:54:17.392Z,90.50
2018-03-23T13:56:44.829Z,90.40
2018-03-23T13:59:18.089Z,90.40
2018-03-23T14:01:45.524Z,90.50
2018-03-23T14:04:13.188Z,90.60
2018-03-23T14:06:42.530Z,90.60
2018-03-23T14:09:10.962Z,90.50
2018-03-23T14:11:38.751Z,90.50
2018-03-23T14:14:06.672Z,90.50
2018-03-23T14:16:34.497Z,90.40
2018-03-23T14:19:03.037Z,90.30
2018-03-23T14:21:30.536Z,90.30
2018-03-23T14:23:57.989Z,90.30
2018-03-23T14:26:25.449Z,90.20
2018-03-23T14:28:52.933Z,90.20
2018-03-23T14:31:20.364Z,90.30
2018-03-23T14:33:47.817Z,90.20
2018-03-23T14:36:15.256Z,90.30
2018-03-23T14:38:42.889Z,90.20
2018-03-23T14:41:11.093Z,90.10
2018-03-23T14:43:38.598Z,90.10
2018-03-23T14:46:06.052Z,90.10
2018-03-23T14:48:33.500Z,90.10
2018-03-23T14:51:01.056Z,90.10
2018-03-23T14:53:28.508Z,90.10
2018-03-23T14:55:59.650Z,90.00
2018-03-23T14:58:27.392Z,90.00
2018-03-23T15:00:54.849Z,90.10
2018-03-23T15:03:22.287Z,90.10
2018-03-23T15:05:49.760Z,90.10
2018-03-23T15:08:17.192Z,90.20
2018-03-23T15:10:45.390Z,90.20
2018-03-23T15:13:12.980Z,90.10
2018-03-23T15:15:40.439Z,90.00
2018-03-23T15:18:07.904Z,90.00
2018-03-23T15:20:35.344Z,90.00
2018-03-23T15:23:02.805Z,90.00
2018-03-23T15:25:30.242Z,90.10
2018-03-23T15:27:57.868Z,90.00
2018-03-23T15:30:25.304Z,90.00
2018-03-23T15:32:52.772Z,90.00
2018-03-23T15:35:21.105Z,90.00
2018-03-23T15:37:48.569Z,90.00
2018-03-23T15:40:15.996Z,90.00
2018-03-23T15:42:43.462Z,89.80
2018-03-23T15:45:10.915Z,89.80
2018-03-23T15:47:39.452Z,89.50
2018-03-23T15:50:06.898Z,89.60
2018-03-23T15:52:34.367Z,89.60
2018-03-23T15:55:01.813Z,89.50
2018-03-23T15:57:29.269Z,89.20
2018-03-23T15:59:56.700Z,89.20
2018-03-23T16:02:24.254Z,89.10
2018-03-23T16:04:51.862Z,89.10
2018-03-23T16:07:20.298Z,89.00
2018-03-23T16:09:47.801Z,88.70
2018-03-23T16:12:15.261Z,88.70
2018-03-23T16:14:42.713Z,88.60
2018-03-23T16:17:10.160Z,88.40
2018-03-23T16:19:37.668Z,88.40
2018-03-23T16:22:05.178Z,88.40
2018-03-23T16:24:32.669Z,88.40
2018-03-23T16:27:00.873Z,89.10
2018-03-23T16:29:28.364Z,88.40
2018-03-23T16:31:56.744Z,88.50
2018-03-23T16:34:24.140Z,88.30
2018-03-23T16:36:52.386Z,88.20
2018-03-23T16:39:20.844Z,88.20
2018-03-23T16:41:48.287Z,88.00
2018-03-23T16:44:17.075Z,88.10
2018-03-23T16:46:44.505Z,88.00
2018-03-23T16:49:13.249Z,87.90
2018-03-23T16:51:41.109Z,87.80
2018-03-23T16:54:09.745Z,87.90
2018-03-23T16:56:37.196Z,87.80
2018-03-23T16:59:05.399Z,87.80
2018-03-23T17:01:33.185Z,87.80
2018-03-23T17:04:00.691Z,87.60
2018-03-23T17:06:28.224Z,87.60
2018-03-23T17:08:55.774Z,87.70
2018-03-23T17:11:23.279Z,87.60
2018-03-23T17:13:50.764Z,87.60
2018-03-23T17:16:19.262Z,87.40
2018-03-23T17:18:47.111Z,87.40
2018-03-23T17:21:14.550Z,87.40
2018-03-23T17:23:42.033Z,87.40
2018-03-23T17:26:09.493Z,87.30
2018-03-23T17:28:36.989Z,87.30
2018-03-23T17:31:04.424Z,87.30
2018-03-23T17:33:32.120Z,87.50
2018-03-23T17:36:00.400Z,87.30
2018-03-23T17:38:28.856Z,87.30
2018-03-23T17:40:57.633Z,87.30
2018-03-23T17:43:25.113Z,87.30
2018-03-23T17:45:52.523Z,87.30
2018-03-23T17:48:20.021Z,87.20
2018-03-23T17:50:47.466Z,87.20
2018-03-23T17:53:15.270Z,87.30
2018-03-23T17:55:43.616Z,87.40
2018-03-23T17:58:11.271Z,87.30
2018-03-23T18:00:39.361Z,87.30
2018-03-23T18:03:11.592Z,87.20
2018-03-23T18:05:39.085Z,87.20
2018-03-23T18:08:07.779Z,87.20
2018-03-23T18:10:36.163Z,87.20
2018-03-23T18:13:07.357Z,87.10
2018-03-23T18:15:53.213Z,87.30
2018-03-23T18:18:21.416Z,87.30
2018-03-23T18:20:48.900Z,87.30
2018-03-23T18:23:16.336Z,87.30
2018-03-23T18:25:43.792Z,87.40
2018-03-23T18:28:17.552Z,87.40
2018-03-23T18:30:45.141Z,87.40
2018-03-23T18:33:12.572Z,87.30
2018-03-23T18:35:40.830Z,87.50
2018-03-23T18:38:08.320Z,87.40
2018-03-23T18:40:36.591Z,87.50
2018-03-23T18:43:04.814Z,87.50
2018-03-23T18:45:32.267Z,87.50
2018-03-23T18:47:59.811Z,87.60
2018-03-23T18:50:28.264Z,87.50
2018-03-23T18:52:56.462Z,87.60
2018-03-23T18:55:23.929Z,87.50
2018-03-23T18:57:51.385Z,87.60
2018-03-23T19:00:18.872Z,87.50
2018-03-23T19:02:48.300Z,87.60
2018-03-23T19:05:15.915Z,87.50
2018-03-23T19:07:43.539Z,87.60
2018-03-23T19:10:11.767Z,87.60
2018-03-23T19:12:39.216Z,87.60
2018-03-23T19:15:06.793Z,87.60
2018-03-23T19:17:34.209Z,87.50
2018-03-23T19:20:01.680Z,87.50
2018-03-23T19:22:29.890Z,87.40
2018-03-23T19:24:57.382Z,87.40
2018-03-23T19:27:25.597Z,87.20
2018-03-23T19:29:53.250Z,87.20
2018-03-23T19:35:11.472Z,87.20
2018-03-23T19:37:42.476Z,87.20
2018-03-23T19:40:09.950Z,87.20
2018-03-23T19:42:38.155Z,87.30
2018-03-23T19:45:05.597Z,87.30
2018-03-23T19:47:33.161Z,87.40
2018-03-23T19:50:01.371Z,87.50
2018-03-23T19:52:34.825Z,87.50
2018-03-23T19:55:03.660Z,87.60
2018-03-23T19:57:31.766Z,87.60
2018-03-23T19:59:59.192Z,87.70
2018-03-23T20:02:27.152Z,87.70
2018-03-23T20:04:54.602Z,87.70
2018-03-23T20:07:22.048Z,87.70
2018-03-23T20:09:49.525Z,87.90
2018-03-23T20:12:16.997Z,88.00
2018-03-23T20:14:46.417Z,88.10
2018-03-23T20:17:14.096Z,88.20
2018-03-23T20:19:42.314Z,88.30
2018-03-23T20:22:09.797Z,88.10
2018-03-23T20:24:37.381Z,88.30
2018-03-23T20:27:10.595Z,88.30
2018-03-23T20:29:39.940Z,88.40
2018-03-23T20:32:23.256Z,88.40
2018-03-23T20:34:51.961Z,88.50
2018-03-23T20:37:19.445Z,88.60
2018-03-23T20:39:47.704Z,88.70
2018-03-23T20:42:15.143Z,88.70
2018-03-23T20:44:42.609Z,88.70
2018-03-23T20:47:10.166Z,88.90
2018-03-23T20:49:37.576Z,88.90
2018-03-23T20:52:05.045Z,89.10
2018-03-23T20:54:32.486Z,89.20
2018-03-23T20:57:00.720Z,89.40
2018-03-23T20:59:28.161Z,89.20
2018-03-23T21:01:55.608Z,89.30
2018-03-23T21:04:23.613Z,89.30
2018-03-23T21:06:51.041Z,89.40
2018-03-23T21:09:18.484Z,89.50
2018-03-23T21:11:45.960Z,89.60
2018-03-23T21:14:13.428Z,89.70
2018-03-23T21:16:40.861Z,89.80
2018-03-23T21:19:08.396Z,89.90
2018-03-23T21:21:35.968Z,90.00
2018-03-23T21:24:03.437Z,89.90
2018-03-23T21:26:30.879Z,89.90
2018-03-23T21:28:58.457Z,89.90
2018-03-23T21:31:25.864Z,89.90
2018-03-23T21:33:53.304Z,89.90
2018-03-23T21:36:20.905Z,89.90
2018-03-23T21:38:48.379Z,89.90
2018-03-23T21:41:20.597Z,89.90
2018-03-23T21:43:48.404Z,89.80
2018-03-23T21:46:16.596Z,89.70
2018-03-23T21:48:44.032Z,89.60
2018-03-23T21:51:11.689Z,89.60
2018-03-23T21:53:39.184Z,89.60
2018-03-23T21:56:08.632Z,89.50
2018-03-23T21:58:36.104Z,89.60
2018-03-23T22:01:05.448Z,89.60
2018-03-23T22:03:32.896Z,89.50
2018-03-23T22:06:00.381Z,89.60
2018-03-23T22:08:28.735Z,89.60
2018-03-23T22:10:56.168Z,89.60
2018-03-23T22:13:23.669Z,89.70
2018-03-23T22:15:51.095Z,89.80
2018-03-23T22:18:18.548Z,89.90
2018-03-23T22:20:45.995Z,89.90
2018-03-23T22:23:15.784Z,90.00
2018-03-23T22:25:43.216Z,90.00
2018-03-23T22:28:10.672Z,90.00
2018-03-23T22:30:38.157Z,90.00
2018-03-23T22:33:05.596Z,90.00
2018-03-23T22:35:33.038Z,90.20
2018-03-23T22:38:00.524Z,90.10
2018-03-23T22:40:27.985Z,90.10
2018-03-23T22:42:55.425Z,90.10
2018-03-23T22:45:22.926Z,90.10
2018-03-23T22:47:53.113Z,90.20
2018-03-23T22:50:20.554Z,90.20
2018-03-23T22:52:48.060Z,90.20
2018-03-23T22:55:34.173Z,90.20
2018-03-23T22:58:02.916Z,90.20
2018-03-23T23:00:30.432Z,90.10
2018-03-23T23:02:57.936Z,90.20
2018-03-23T23:05:26.264Z,90.10
2018-03-23T23:07:53.704Z,90.10
2018-03-23T23:10:21.327Z,90.10
2018-03-23T23:12:48.774Z,90.20
2018-03-23T23:15:16.224Z,90.20
2018-03-23T23:17:43.725Z,90.20
2018-03-23T23:20:29.953Z,90.30
2018-03-23T23:22:57.464Z,90.20
2018-03-23T23:25:24.901Z,90.20
2018-03-23T23:27:52.345Z,90.20
2018-03-23T23:30:19.904Z,90.20
2018-03-23T23:32:47.608Z,90.20
2018-03-23T23:35:15.815Z,90.10
2018-03-23T23:37:43.302Z,90.10
2018-03-23T23:40:10.741Z,90.10
2018-03-23T23:42:38.208Z,90.10
2018-03-23T23:45:06.416Z,90.10
2018-03-23T23:47:33.882Z,90.10
2018-03-23T23:50:01.330Z,90.10
2018-03-23T23:52:30.786Z,90.50
2018-03-23T23:54:58.217Z,90.20
2018-03-23T23:57:26.444Z,90.20
2018-03-23T23:59:53.889Z,90.20
